Time;durP1;ratioP1;P1;durP2;ratioP2;P2;SDS_P1;SDS_P2;PMS_P1;PMS_P2;Temp;Humidity;BMP_temperature;BMP_pressure;BME280_temperature;BME280_humidity;BME280_pressure;Samples;Min_cycle;Max_cycle;Signal;HPM_P1;HPM_P2
2022/03/22 00:02:23;;;;;;;;;;;;;;;4.71;47.29;99472.66;4968365;28;19930;-82
2022/03/22 00:04:51;;;;;;;;;;;;;;;5.00;47.99;99468.97;4957279;28;19926;-83
2022/03/22 00:07:19;;;;;;;;;;;;;;;4.95;47.15;99465.34;4950436;28;19948;-81
2022/03/22 00:09:47;;;;;;;;;;;;;;;4.78;47.15;99461.75;4971874;28;19979;-81
2022/03/22 00:12:15;;;;;;;;;;;;;;;4.83;46.66;99472.63;4955838;28;19926;-82
2022/03/22 00:14:44;;;;;;;;;;;;;;;4.93;47.34;99470.97;4967986;28;19926;-83
2022/03/22 00:17:34;;;;;;;;;;;;;;;4.84;47.69;99475.09;4967077;28;19980;-81
2022/03/22 00:20:02;;;;;;;;;;;;;;;4.86;47.54;99474.88;4955446;28;19938;-82
2022/03/22 00:22:35;;;;;;;;;;;;;;;4.83;46.58;99475.31;4953441;28;20492;-81
2022/03/22 00:25:03;;;;;;;;;;;;;;;4.62;48.29;99474.84;4971693;28;20030;-80
2022/03/22 00:27:50;;;;;;;;;;;;;;;4.82;46.87;99473.69;4962891;28;20010;-82
2022/03/22 00:30:18;;;;;;;;;;;;;;;4.94;46.01;99477.19;4968181;28;20030;-81
2022/03/22 00:32:50;;;;;;;;;;;;;;;4.79;46.31;99477.66;4951196;28;19987;-81
2022/03/22 00:35:18;;;;;;;;;;;;;;;4.92;46.88;99465.84;4909407;29;19946;-80
2022/03/22 00:37:49;;;;;;;;;;;;;;;4.72;47.20;99477.78;4943988;28;19926;-80
2022/03/22 00:40:17;;;;;;;;;;;;;;;4.76;46.32;99475.44;4925953;28;19950;-80
2022/03/22 00:42:46;;;;;;;;;;;;;;;4.76;46.86;99477.34;4949613;29;20404;-80
2022/03/22 00:45:16;;;;;;;;;;;;;;;4.67;47.06;99477.66;4958222;28;19934;-80
2022/03/22 00:48:13;;;;;;;;;;;;;;;4.78;46.75;99473.34;4947592;28;19989;-80
2022/03/22 00:50:43;;;;;;;;;;;;;;;4.58;46.32;99480.94;4946582;29;19926;-82
2022/03/22 00:53:12;;;;;;;;;;;;;;;4.69;46.75;99469.38;4935221;29;19931;-82
2022/03/22 00:55:41;;;;;;;;;;;;;;;4.66;47.29;99475.22;4967540;28;19926;-81
2022/03/22 00:58:09;;;;;;;;;;;;;;;4.49;47.24;99479.66;4945395;29;19957;-79
2022/03/22 01:00:37;;;;;;;;;;;;;;;4.57;45.84;99480.13;4947157;29;19933;-80
2022/03/22 01:03:05;;;;;;;;;;;;;;;4.70;45.80;99476.41;4952604;28;19941;-80
2022/03/22 01:06:01;;;;;;;;;;;;;;;4.66;45.45;99477.91;4949224;29;19927;-79
2022/03/22 01:08:37;;;;;;;;;;;;;;;4.44;46.12;99473.09;4948038;28;19926;-83
2022/03/22 01:11:08;;;;;;;;;;;;;;;4.44;46.90;99481.19;4949298;29;19993;-80
2022/03/22 01:14:00;;;;;;;;;;;;;;;4.61;46.59;99478.59;4935544;29;20029;-80
2022/03/22 01:16:28;;;;;;;;;;;;;;;4.46;45.74;99475.56;4956329;28;19930;-79
2022/03/22 01:18:56;;;;;;;;;;;;;;;4.47;46.23;99477.19;4950549;28;19930;-82
2022/03/22 01:21:24;;;;;;;;;;;;;;;4.32;46.09;99471.47;4947036;29;19977;-80
2022/03/22 01:23:54;;;;;;;;;;;;;;;4.60;45.89;99471.59;4932903;28;20320;-79
2022/03/22 01:26:22;;;;;;;;;;;;;;;4.52;46.06;99469.25;4941689;28;19927;-80
2022/03/22 01:28:50;;;;;;;;;;;;;;;4.32;46.79;99463.41;4937861;28;19950;-79
2022/03/22 01:31:18;;;;;;;;;;;;;;;4.50;46.37;99471.34;4950046;29;19930;-84
2022/03/22 01:33:46;;;;;;;;;;;;;;;4.22;46.62;99468.53;4946000;29;19930;-81
2022/03/22 01:36:14;;;;;;;;;;;;;;;4.23;46.29;99470.97;4949469;29;19942;-80
2022/03/22 01:38:44;;;;;;;;;;;;;;;4.33;46.68;99468.53;4949276;28;20017;-80
2022/03/22 01:41:14;;;;;;;;;;;;;;;4.24;45.99;99463.72;4964719;28;20009;-82
2022/03/22 01:43:42;;;;;;;;;;;;;;;4.18;45.77;99462.78;4947707;29;20017;-81
2022/03/22 01:46:10;;;;;;;;;;;;;;;4.17;47.13;99461.97;4946147;29;20061;-80
2022/03/22 01:48:38;;;;;;;;;;;;;;;4.08;45.97;99457.16;4934379;29;19977;-81
2022/03/22 01:51:10;;;;;;;;;;;;;;;4.20;47.42;99460.66;4947766;29;20036;-82
2022/03/22 01:53:40;;;;;;;;;;;;;;;4.02;47.38;99464.28;4965427;28;19931;-82
2022/03/22 01:56:08;;;;;;;;;;;;;;;3.97;46.70;99463.31;4929270;29;19927;-79
2022/03/22 01:58:37;;;;;;;;;;;;;;;4.16;46.86;99459.50;4949021;29;20001;-78
2022/03/22 02:06:40;;;;;;;;;;;;;;;4.14;46.21;99454.34;4949393;29;19930;-79
2022/03/22 02:09:08;;;;;;;;;;;;;;;4.08;47.06;99454.47;4945924;28;19926;-80
2022/03/22 02:11:37;;;;;;;;;;;;;;;4.03;46.69;99444.38;4949506;29;19934;-78
2022/03/22 02:14:08;;;;;;;;;;;;;;;3.88;46.79;99442.13;4947624;29;20420;-77
2022/03/22 02:16:36;;;;;;;;;;;;;;;4.10;46.21;99442.44;4947906;29;20060;-80
2022/03/22 02:19:29;;;;;;;;;;;;;;;4.02;46.60;99445.44;4950133;28;19933;-79
2022/03/22 02:21:59;;;;;;;;;;;;;;;4.04;45.68;99448.72;4950152;29;19934;-79
2022/03/22 02:24:29;;;;;;;;;;;;;;;3.84;46.00;99442.84;4950603;28;19969;-81
2022/03/22 02:26:57;;;;;;;;;;;;;;;3.99;46.67;99442.38;4956857;28;19954;-80
2022/03/22 02:29:25;;;;;;;;;;;;;;;3.73;47.06;99432.84;4963443;28;19934;-80
2022/03/22 02:31:54;;;;;;;;;;;;;;;3.71;47.10;99434.97;4954411;28;19926;-80
2022/03/22 02:34:21;;;;;;;;;;;;;;;3.76;46.98;99440.47;4950945;28;19930;-79
2022/03/22 02:36:50;;;;;;;;;;;;;;;3.70;47.03;99444.06;4953935;28;19926;-84
2022/03/22 02:39:18;;;;;;;;;;;;;;;3.58;46.68;99436.81;4966430;28;20517;-83
2022/03/22 02:41:48;;;;;;;;;;;;;;;3.78;46.83;99438.38;4966147;28;19946;-84
2022/03/22 02:44:17;;;;;;;;;;;;;;;3.69;46.74;99432.50;4967777;28;19926;-84
2022/03/22 02:46:45;;;;;;;;;;;;;;;3.78;46.32;99435.66;4937316;28;19944;-81
2022/03/22 02:49:13;;;;;;;;;;;;;;;3.92;45.83;99431.75;4966189;28;19957;-82
2022/03/22 02:51:41;;;;;;;;;;;;;;;3.96;45.94;99435.63;4967632;28;20388;-83
2022/03/22 02:54:09;;;;;;;;;;;;;;;3.86;45.38;99432.66;4936313;28;19926;-82
2022/03/22 02:56:37;;;;;;;;;;;;;;;3.85;46.83;99436.41;4934915;28;19926;-82
2022/03/22 02:59:06;;;;;;;;;;;;;;;3.93;45.93;99433.38;4949579;28;21323;-79
2022/03/22 03:01:35;;;;;;;;;;;;;;;3.88;45.25;99433.25;4936000;28;20247;-83
2022/03/22 03:04:04;;;;;;;;;;;;;;;3.68;45.47;99441.63;4953023;28;19930;-79
2022/03/22 03:06:32;;;;;;;;;;;;;;;3.63;45.55;99438.81;4969607;28;19965;-81
2022/03/22 03:09:01;;;;;;;;;;;;;;;3.55;46.06;99439.13;4971512;28;19933;-81
2022/03/22 04:07:58;;;;;;;;;;;;;;;3.76;44.79;99453.91;4792159;29;19933;-80
2022/03/22 04:10:27;;;;;;;;;;;;;;;3.45;43.97;99442.34;4840905;29;19933;-80
2022/03/22 04:12:55;;;;;;;;;;;;;;;3.56;44.43;99440.75;4833296;29;19929;-81
2022/03/22 04:15:25;;;;;;;;;;;;;;;3.49;43.74;99442.72;4844395;29;19993;-85
2022/03/22 04:17:53;;;;;;;;;;;;;;;3.30;45.26;99448.13;4841799;29;19932;-80
2022/03/22 04:20:22;;;;;;;;;;;;;;;3.53;44.48;99455.47;4836151;29;19928;-83
2022/03/22 04:23:09;;;;;;;;;;;;;;;3.40;44.69;99450.25;4879583;29;19956;-81
2022/03/22 04:25:55;;;;;;;;;;;;;;;3.43;44.21;99465.94;4897938;29;19928;-86
2022/03/22 04:34:14;;;;;;;;;;;;;;;3.74;43.06;99462.22;4903027;29;19927;-79
2022/03/22 04:36:42;;;;;;;;;;;;;;;3.79;42.61;99461.53;4885195;29;20003;-80
2022/03/22 04:39:11;;;;;;;;;;;;;;;3.68;43.65;99463.94;4906481;29;19975;-80
2022/03/22 04:44:31;;;;;;;;;;;;;;;3.47;43.75;99461.75;4889834;29;19931;-83
2022/03/22 04:46:59;;;;;;;;;;;;;;;3.41;43.19;99468.03;4885340;29;19954;-80
2022/03/22 04:49:29;;;;;;;;;;;;;;;3.33;43.08;99471.03;4896257;29;20288;-84
2022/03/22 04:57:32;;;;;;;;;;;;;;;3.38;43.55;99471.16;4916654;29;19954;-85
2022/03/22 05:00:00;;;;;;;;;;;;;;;3.05;44.76;99469.72;4940838;29;20017;-86
2022/03/22 05:02:28;;;;;;;;;;;;;;;2.99;44.63;99472.47;4950897;28;19939;-85
2022/03/22 05:04:58;;;;;;;;;;;;;;;3.18;44.90;99473.28;4954451;23;20050;-92
2022/03/22 05:07:26;;;;;;;;;;;;;;;3.05;44.06;99475.09;4948545;28;19943;-91
2022/03/22 05:09:58;;;;;;;;;;;;;;;3.25;43.32;99471.31;4947978;28;20037;-90
2022/03/22 05:12:26;;;;;;;;;;;;;;;3.17;43.65;99468.97;4930909;29;19942;-89
2022/03/22 05:14:54;;;;;;;;;;;;;;;3.14;43.66;99481.78;4935486;29;19953;-91
2022/03/22 05:17:23;;;;;;;;;;;;;;;3.17;43.83;99474.31;4950598;28;19949;-89
2022/03/22 05:20:07;;;;;;;;;;;;;;;3.07;44.46;99483.72;4946836;23;20484;-78
2022/03/22 05:22:35;;;;;;;;;;;;;;;3.17;43.92;99477.00;4912421;29;19931;-76
2022/03/22 05:25:09;;;;;;;;;;;;;;;3.04;43.31;99472.63;4913947;29;19938;-78
2022/03/22 05:27:37;;;;;;;;;;;;;;;3.12;43.43;99481.19;4928326;29;20369;-79
2022/03/22 05:30:06;;;;;;;;;;;;;;;2.95;44.27;99479.34;4914244;29;19928;-78
2022/03/22 05:32:35;;;;;;;;;;;;;;;2.99;44.50;99480.53;4906713;29;19990;-78
2022/03/22 05:35:06;;;;;;;;;;;;;;;3.15;43.17;99483.44;4913789;29;19927;-78
2022/03/22 05:37:34;;;;;;;;;;;;;;;3.06;43.52;99481.25;4910983;29;19962;-78
2022/03/22 05:40:02;;;;;;;;;;;;;;;3.11;43.87;99484.91;4929435;29;19969;-78
2022/03/22 05:42:32;;;;;;;;;;;;;;;3.05;43.43;99482.31;4916193;29;19927;-77
2022/03/22 05:45:01;;;;;;;;;;;;;;;3.17;43.79;99485.88;4901141;29;19974;-79
2022/03/22 05:47:29;;;;;;;;;;;;;;;3.22;43.24;99482.53;4910515;29;19931;-78
2022/03/22 05:50:00;;;;;;;;;;;;;;;3.15;42.80;99488.81;4905826;29;19934;-77
2022/03/22 05:52:28;;;;;;;;;;;;;;;3.09;42.77;99476.28;4904839;29;20027;-77
2022/03/22 05:54:59;;;;;;;;;;;;;;;3.12;43.29;99481.19;4909736;29;19927;-77
2022/03/22 05:57:27;;;;;;;;;;;;;;;2.99;43.79;99486.72;4901823;29;19927;-78
2022/03/22 05:59:57;;;;;;;;;;;;;;;2.86;43.10;99481.47;4904029;29;20041;-78
2022/03/22 06:02:31;;;;;;;;;;;;;;;2.91;43.94;99481.63;4924668;29;19986;-79
2022/03/22 06:04:59;;;;;;;;;;;;;;;2.77;42.85;99472.06;4897181;29;19937;-74
2022/03/22 06:07:30;;;;;;;;;;;;;;;3.00;42.89;99480.31;4916204;29;19934;-75
2022/03/22 06:10:24;;;;;;;;;;;;;;;3.13;42.40;99482.81;4911205;29;19931;-75
2022/03/22 06:12:57;;;;;;;;;;;;;;;3.23;42.42;99486.84;4910344;29;19937;-77
2022/03/22 06:15:27;;;;;;;;;;;;;;;3.26;42.64;99483.72;4924798;29;19935;-75
2022/03/22 07:09:09;;;;;;;;;;;;;;;4.79;39.59;99533.38;4856170;29;20406;-76
2022/03/22 08:05:53;;;;;;;;;;;;;;;6.99;35.23;99541.94;4842351;29;19938;-76
2022/03/22 08:08:27;;;;;;;;;;;;;;;7.19;33.33;99547.66;4823693;29;19935;-77
2022/03/22 08:11:00;;;;;;;;;;;;;;;6.73;34.28;99538.03;4832922;29;19935;-77
2022/03/22 08:13:29;;;;;;;;;;;;;;;6.96;34.56;99537.84;4838099;29;20077;-77
2022/03/22 08:15:59;;;;;;;;;;;;;;;7.03;35.19;99548.47;4825764;29;19929;-76
2022/03/22 08:18:27;;;;;;;;;;;;;;;7.08;34.35;99540.44;4844053;29;20028;-76
2022/03/22 08:20:55;;;;;;;;;;;;;;;7.17;32.88;99538.94;4856169;29;20380;-77
2022/03/22 08:23:24;;;;;;;;;;;;;;;7.35;34.49;99535.97;4835803;29;20007;-73
2022/03/22 08:25:55;;;;;;;;;;;;;;;7.46;33.06;99536.09;4838101;29;20027;-73
2022/03/22 08:28:24;;;;;;;;;;;;;;;7.77;33.44;99538.09;4841455;29;19980;-74
2022/03/22 08:30:52;;;;;;;;;;;;;;;8.07;33.20;99534.09;4890333;29;20005;-74
2022/03/22 08:33:20;;;;;;;;;;;;;;;8.11;33.12;99532.50;4919418;29;20033;-74
2022/03/22 08:35:49;;;;;;;;;;;;;;;8.04;33.42;99526.47;4917434;28;19931;-75
2022/03/22 08:38:19;;;;;;;;;;;;;;;8.25;31.90;99530.19;4929162;29;20407;-74
2022/03/22 08:40:47;;;;;;;;;;;;;;;8.36;32.47;99524.66;4908495;29;20005;-73
2022/03/22 08:43:17;;;;;;;;;;;;;;;8.54;31.55;99519.94;4921467;29;19935;-73
2022/03/22 08:45:46;;;;;;;;;;;;;;;8.78;32.41;99515.78;4944472;28;19962;-74
2022/03/22 08:48:38;;;;;;;;;;;;;;;9.08;32.57;99517.06;4927301;29;19931;-74
2022/03/22 08:51:10;;;;;;;;;;;;;;;9.18;32.51;99514.41;4918597;29;19934;-74
2022/03/22 08:53:38;;;;;;;;;;;;;;;9.32;32.36;99510.16;4912202;29;19931;-74
2022/03/22 08:56:10;;;;;;;;;;;;;;;9.39;30.99;99509.91;4913331;29;19935;-74
2022/03/22 08:58:41;;;;;;;;;;;;;;;9.36;31.16;99508.53;4948490;28;20338;-74
2022/03/22 09:01:10;;;;;;;;;;;;;;;9.45;31.16;99515.09;4929227;29;19927;-74
2022/03/22 09:03:39;;;;;;;;;;;;;;;9.58;32.10;99508.34;4948349;28;20342;-74
2022/03/22 09:06:11;;;;;;;;;;;;;;;9.73;32.45;99513.03;4915354;29;20393;-74
2022/03/22 09:08:41;;;;;;;;;;;;;;;9.84;30.02;99509.25;4909095;29;19934;-74
2022/03/22 09:11:11;;;;;;;;;;;;;;;10.02;33.22;99509.84;4917802;29;19933;-74
2022/03/22 09:13:42;;;;;;;;;;;;;;;10.14;30.96;99496.84;4899924;29;19975;-74
2022/03/22 09:16:14;;;;;;;;;;;;;;;10.46;31.14;99499.34;4916705;29;20098;-74
2022/03/22 09:18:46;;;;;;;;;;;;;;;10.41;30.65;99494.72;4932469;29;19931;-74
2022/03/22 09:21:14;;;;;;;;;;;;;;;10.47;29.22;99499.06;4917719;29;19931;-74
2022/03/22 09:23:43;;;;;;;;;;;;;;;10.78;29.06;99499.06;4930233;29;20389;-74
2022/03/22 09:26:12;;;;;;;;;;;;;;;11.00;31.13;99496.84;4918809;29;19974;-72
2022/03/22 09:28:40;;;;;;;;;;;;;;;11.10;29.52;99501.44;4934594;29;20393;-74
2022/03/22 09:31:12;;;;;;;;;;;;;;;11.31;29.67;99495.94;4906054;29;20429;-74
2022/03/22 09:33:40;;;;;;;;;;;;;;;11.09;28.18;99493.56;4930853;29;20381;-74
2022/03/22 09:36:09;;;;;;;;;;;;;;;11.32;29.62;99481.25;4921149;29;20413;-74
2022/03/22 09:38:38;;;;;;;;;;;;;;;11.28;27.78;99483.69;4921906;29;19927;-74
2022/03/22 09:41:09;;;;;;;;;;;;;;;11.64;28.84;99475.41;4927531;29;20269;-74
2022/03/22 09:43:38;;;;;;;;;;;;;;;11.72;29.29;99475.63;4905268;29;19931;-74
2022/03/22 09:46:09;;;;;;;;;;;;;;;11.95;28.08;99468.72;4887857;29;19927;-74
2022/03/22 09:48:40;;;;;;;;;;;;;;;12.15;28.89;99465.03;4911600;29;19995;-74
2022/03/22 09:53:56;;;;;;;;;;;;;;;12.51;28.30;99472.91;4924158;29;19931;-75
2022/03/22 09:56:26;;;;;;;;;;;;;;;12.40;26.98;99461.28;4924451;29;19927;-75
2022/03/22 09:58:54;;;;;;;;;;;;;;;12.52;25.83;99469.94;4906222;29;19950;-75
2022/03/22 10:01:22;;;;;;;;;;;;;;;12.03;26.59;99459.94;4899068;29;19957;-76
2022/03/22 10:04:00;;;;;;;;;;;;;;;12.32;27.89;99461.91;4901850;29;19949;-76
2022/03/22 10:06:29;;;;;;;;;;;;;;;12.51;27.99;99464.75;4915007;29;20399;-76
2022/03/22 10:08:58;;;;;;;;;;;;;;;12.87;26.76;99457.03;4929927;29;19938;-76
2022/03/22 10:11:37;;;;;;;;;;;;;;;12.80;28.06;99462.03;4917884;29;20292;-76
2022/03/22 10:14:08;;;;;;;;;;;;;;;13.07;26.04;99465.03;4918823;29;20034;-76
2022/03/22 10:16:50;;;;;;;;;;;;;;;13.01;25.62;99455.28;4907611;29;19942;-76
2022/03/22 10:19:23;;;;;;;;;;;;;;;12.90;25.05;99448.31;4906218;29;19927;-76
2022/03/22 10:21:53;;;;;;;;;;;;;;;13.37;26.32;99443.97;4907418;29;19927;-76
2022/03/22 10:24:21;;;;;;;;;;;;;;;13.30;25.88;99446.22;4913374;29;19927;-76
2022/03/22 10:26:50;;;;;;;;;;;;;;;13.39;25.72;99440.94;4916640;29;19935;-76
2022/03/22 10:29:21;;;;;;;;;;;;;;;13.51;24.87;99433.94;4922670;29;19938;-76
2022/03/22 10:31:50;;;;;;;;;;;;;;;13.76;24.13;99434.72;4909226;29;19934;-76
2022/03/22 10:34:23;;;;;;;;;;;;;;;13.55;24.03;99442.38;4928863;29;19954;-73
2022/03/22 10:36:54;;;;;;;;;;;;;;;13.41;22.60;99433.25;4918195;29;19982;-73
2022/03/22 10:39:22;;;;;;;;;;;;;;;13.71;23.76;99429.31;4918603;29;19927;-73
2022/03/22 10:41:50;;;;;;;;;;;;;;;13.74;22.92;99431.44;4929581;29;19931;-75
2022/03/22 10:44:20;;;;;;;;;;;;;;;13.94;21.79;99436.63;4913813;29;20007;-75
2022/03/22 10:46:48;;;;;;;;;;;;;;;13.71;23.53;99423.84;4914508;29;19934;-75
2022/03/22 10:49:19;;;;;;;;;;;;;;;13.98;24.78;99432.19;4907875;29;19982;-75
2022/03/22 10:52:10;;;;;;;;;;;;;;;14.02;23.98;99430.50;4927147;29;19927;-74
2022/03/22 10:54:38;;;;;;;;;;;;;;;14.24;22.06;99426.34;4919978;29;19927;-74
2022/03/22 10:57:14;;;;;;;;;;;;;;;14.41;21.77;99424.66;4909378;29;19927;-75
2022/03/22 10:59:43;;;;;;;;;;;;;;;14.19;19.49;99408.09;4893869;29;20433;-74
2022/03/22 11:02:12;;;;;;;;;;;;;;;14.60;22.54;99421.13;4907508;29;19931;-74
2022/03/22 11:04:42;;;;;;;;;;;;;;;14.40;22.40;99419.50;4894023;29;19938;-74
2022/03/22 11:07:12;;;;;;;;;;;;;;;14.45;20.96;99419.41;4907062;29;19927;-74
2022/03/22 11:09:45;;;;;;;;;;;;;;;14.61;19.24;99418.06;4914370;29;19926;-75
2022/03/22 11:12:13;;;;;;;;;;;;;;;14.71;20.40;99410.78;4925385;29;19926;-74
2022/03/22 11:14:41;;;;;;;;;;;;;;;14.55;18.98;99405.59;4933861;29;19927;-74
2022/03/22 11:17:09;;;;;;;;;;;;;;;14.57;20.55;99406.09;4925498;29;19931;-75
2022/03/22 11:19:37;;;;;;;;;;;;;;;14.35;20.48;99409.47;4926450;29;19927;-76
2022/03/22 11:22:06;;;;;;;;;;;;;;;14.60;22.39;99401.97;4911784;29;19927;-75
2022/03/22 11:24:36;;;;;;;;;;;;;;;14.81;21.65;99403.22;4931398;29;19927;-75
2022/03/22 11:27:06;;;;;;;;;;;;;;;14.26;20.48;99394.84;4929678;29;20453;-75
2022/03/22 11:29:34;;;;;;;;;;;;;;;14.48;20.00;99396.94;4936302;29;19927;-73
2022/03/22 11:34:58;;;;;;;;;;;;;;;14.41;20.19;99385.56;4882746;29;19935;-73
2022/03/22 11:37:29;;;;;;;;;;;;;;;14.38;21.15;99380.69;4914202;29;20393;-72
2022/03/22 11:42:52;;;;;;;;;;;;;;;14.86;22.18;99380.38;4921355;29;19931;-75
2022/03/22 11:45:21;;;;;;;;;;;;;;;14.95;19.08;99373.09;4909379;29;19985;-75
2022/03/22 11:47:57;;;;;;;;;;;;;;;14.94;19.37;99375.03;4923051;29;20021;-75
2022/03/22 11:50:26;;;;;;;;;;;;;;;14.92;18.38;99374.53;4928796;29;19934;-75
2022/03/22 11:53:01;;;;;;;;;;;;;;;14.98;18.22;99374.44;4915528;29;20435;-75
2022/03/22 11:55:31;;;;;;;;;;;;;;;15.21;18.05;99367.91;4913510;29;19934;-74
2022/03/22 11:58:04;;;;;;;;;;;;;;;15.27;19.80;99368.63;4923172;29;19927;-75
2022/03/22 12:00:42;;;;;;;;;;;;;;;15.37;20.20;99357.44;4927194;29;19927;-75
2022/03/22 12:03:11;;;;;;;;;;;;;;;15.30;19.16;99357.88;4913088;29;19990;-75
2022/03/22 12:05:40;;;;;;;;;;;;;;;15.09;18.24;99354.75;4919810;29;20022;-75
2022/03/22 12:08:09;;;;;;;;;;;;;;;14.89;17.96;99352.44;4913728;29;19927;-75
2022/03/22 12:10:39;;;;;;;;;;;;;;;14.86;19.03;99353.03;4930754;29;19935;-75
2022/03/22 12:13:07;;;;;;;;;;;;;;;15.22;19.11;99352.28;4901735;29;20449;-75
2022/03/22 12:15:35;;;;;;;;;;;;;;;15.46;18.80;99352.88;4914532;29;19935;-75
2022/03/22 12:18:03;;;;;;;;;;;;;;;15.50;19.58;99347.56;4917697;29;19927;-75
2022/03/22 12:20:31;;;;;;;;;;;;;;;15.42;17.07;99346.38;4912804;29;19937;-75
2022/03/22 12:23:00;;;;;;;;;;;;;;;15.45;17.06;99343.03;4911549;29;20456;-75
2022/03/22 12:25:31;;;;;;;;;;;;;;;15.59;19.21;99343.78;4928710;29;19931;-75
2022/03/22 12:28:03;;;;;;;;;;;;;;;15.65;19.29;99344.50;4927706;29;19927;-75
2022/03/22 12:30:32;;;;;;;;;;;;;;;15.74;17.83;99341.84;4930283;29;19973;-75
2022/03/22 12:33:06;;;;;;;;;;;;;;;15.41;17.83;99334.63;4910049;29;20009;-75
2022/03/22 12:35:37;;;;;;;;;;;;;;;15.46;18.32;99336.44;4933065;29;19927;-75
2022/03/22 12:38:05;;;;;;;;;;;;;;;15.56;19.13;99327.97;4934225;29;19926;-75
2022/03/22 12:40:34;;;;;;;;;;;;;;;15.62;20.93;99328.69;4918457;29;19938;-75
2022/03/22 12:43:05;;;;;;;;;;;;;;;15.28;18.41;99321.75;4930100;29;19927;-75
2022/03/22 12:45:33;;;;;;;;;;;;;;;15.62;18.55;99329.47;4921512;29;19927;-75
2022/03/22 12:48:03;;;;;;;;;;;;;;;15.71;17.98;99324.91;4922113;29;19931;-75
2022/03/22 12:50:31;;;;;;;;;;;;;;;15.83;17.40;99315.34;4897556;29;19931;-72
2022/03/22 12:53:00;;;;;;;;;;;;;;;15.98;18.80;99318.50;4918473;29;19970;-72
2022/03/22 12:55:28;;;;;;;;;;;;;;;15.78;17.22;99310.78;4922466;29;19933;-73
2022/03/22 12:58:01;;;;;;;;;;;;;;;15.81;18.16;99307.41;4913902;29;19927;-72
2022/03/22 13:00:31;;;;;;;;;;;;;;;15.99;17.70;99313.84;4915649;29;20041;-72
2022/03/22 13:03:05;;;;;;;;;;;;;;;15.88;17.79;99306.97;4917494;29;19926;-72
2022/03/22 13:05:34;;;;;;;;;;;;;;;15.69;18.81;99307.16;4916878;29;19933;-72
2022/03/22 13:08:14;;;;;;;;;;;;;;;15.56;18.80;99308.00;4917515;29;19928;-72
2022/03/22 13:15:01;;;;;;;;;;;;;;;15.55;17.17;99296.22;4899659;29;19939;-75
2022/03/22 13:16:24;;;;;;;;;;;;;;;15.70;17.96;99295.06;4930479;29;19977;-75
2022/03/22 13:18:54;;;;;;;;;;;;;;;15.91;18.61;99292.63;4930078;29;19931;-75
2022/03/22 13:21:25;;;;;;;;;;;;;;;15.96;17.20;99287.03;4930000;29;19927;-75
2022/03/22 13:24:00;;;;;;;;;;;;;;;16.14;19.15;99290.69;4930224;29;19954;-75
2022/03/22 13:26:28;;;;;;;;;;;;;;;16.03;18.24;99289.31;4909613;29;19927;-75
2022/03/22 13:28:57;;;;;;;;;;;;;;;15.94;18.14;99286.53;4915739;29;20025;-75
2022/03/22 13:31:26;;;;;;;;;;;;;;;15.90;17.24;99283.63;4921562;29;19927;-75
2022/03/22 13:33:55;;;;;;;;;;;;;;;15.81;17.08;99281.94;4924724;29;19927;-75
2022/03/22 13:36:48;;;;;;;;;;;;;;;16.07;17.62;99276.63;4901173;29;19978;-75
2022/03/22 13:39:22;;;;;;;;;;;;;;;16.14;17.86;99268.75;4916191;29;19927;-75
2022/03/22 13:41:51;;;;;;;;;;;;;;;16.13;19.00;99273.41;4915746;29;19934;-75
2022/03/22 13:44:26;;;;;;;;;;;;;;;16.05;17.23;99271.47;4900775;29;19927;-75
2022/03/22 13:46:59;;;;;;;;;;;;;;;15.98;17.42;99268.34;4894700;29;19926;-75
2022/03/22 13:49:34;;;;;;;;;;;;;;;15.97;18.74;99267.53;4904491;29;19954;-75
2022/03/22 13:52:02;;;;;;;;;;;;;;;16.01;18.39;99266.91;4920330;29;19966;-75
2022/03/22 13:54:30;;;;;;;;;;;;;;;16.02;18.36;99263.84;4891694;29;20022;-75
2022/03/22 13:57:06;;;;;;;;;;;;;;;15.98;17.39;99263.69;4898505;29;19927;-75
2022/03/22 13:59:41;;;;;;;;;;;;;;;15.87;17.74;99256.84;4887531;29;19943;-75
2022/03/22 14:02:13;;;;;;;;;;;;;;;15.97;19.27;99258.50;4932136;29;19978;-75
2022/03/22 14:04:41;;;;;;;;;;;;;;;16.20;18.54;99259.28;4925983;29;20018;-75
2022/03/22 14:07:09;;;;;;;;;;;;;;;16.20;19.08;99262.81;4905006;29;19928;-74
2022/03/22 14:09:39;;;;;;;;;;;;;;;16.08;17.87;99250.81;4915722;29;20042;-75
2022/03/22 14:12:08;;;;;;;;;;;;;;;16.11;17.78;99259.22;4906651;29;19927;-75
2022/03/22 14:14:36;;;;;;;;;;;;;;;16.02;17.65;99255.63;4918704;29;19933;-75
2022/03/22 14:17:04;;;;;;;;;;;;;;;16.22;19.09;99246.84;4925628;29;20009;-75
2022/03/22 14:19:38;;;;;;;;;;;;;;;16.28;18.74;99252.19;4917192;29;19983;-75
2022/03/22 14:22:06;;;;;;;;;;;;;;;16.13;18.69;99251.47;4895305;29;19926;-74
2022/03/22 14:24:34;;;;;;;;;;;;;;;16.25;18.23;99253.66;4911854;29;19927;-75
2022/03/22 14:27:03;;;;;;;;;;;;;;;16.03;17.77;99254.50;4892100;29;19991;-75
2022/03/22 14:29:32;;;;;;;;;;;;;;;16.19;17.79;99253.00;4926483;29;19962;-75
2022/03/22 14:32:00;;;;;;;;;;;;;;;16.10;18.28;99249.38;4919368;29;19927;-75
2022/03/22 14:37:16;;;;;;;;;;;;;;;16.13;18.67;99231.50;4890407;29;19934;-75
2022/03/22 14:39:47;;;;;;;;;;;;;;;16.23;18.35;99234.75;4901233;29;19931;-75
2022/03/22 14:42:18;;;;;;;;;;;;;;;16.32;17.38;99225.78;4924599;29;19927;-75
2022/03/22 14:44:47;;;;;;;;;;;;;;;16.27;17.58;99225.91;4907144;29;19928;-75
2022/03/22 14:47:15;;;;;;;;;;;;;;;16.11;18.02;99220.84;4922470;29;20317;-75
2022/03/22 14:49:47;;;;;;;;;;;;;;;16.27;17.35;99214.94;4920738;29;20013;-75
2022/03/22 14:55:09;;;;;;;;;;;;;;;16.42;17.92;99223.56;4903238;29;19927;-75
2022/03/22 15:00:23;;;;;;;;;;;;;;;16.47;18.40;99215.19;4921524;29;20030;-75
2022/03/22 15:02:52;;;;;;;;;;;;;;;16.44;16.87;99217.75;4912152;29;19927;-75
2022/03/22 15:05:34;;;;;;;;;;;;;;;16.22;17.77;99213.94;4925225;29;20320;-75
2022/03/22 15:08:05;;;;;;;;;;;;;;;16.16;17.99;99214.41;4921574;29;19934;-75
2022/03/22 15:10:33;;;;;;;;;;;;;;;16.23;18.81;99212.81;4928488;29;19926;-75
2022/03/22 15:13:03;;;;;;;;;;;;;;;16.40;18.67;99211.25;4928624;29;20292;-75
2022/03/22 15:15:33;;;;;;;;;;;;;;;16.22;16.20;99211.22;4916509;29;19939;-75
2022/03/22 15:18:05;;;;;;;;;;;;;;;16.10;16.42;99202.78;4919804;29;19935;-75
2022/03/22 15:20:34;;;;;;;;;;;;;;;16.21;17.09;99200.56;4951851;28;20566;-75
2022/03/22 15:23:04;;;;;;;;;;;;;;;16.35;17.26;99206.75;4913087;29;20008;-75
2022/03/22 15:25:32;;;;;;;;;;;;;;;16.39;17.76;99209.66;4919699;29;19934;-75
2022/03/22 15:28:00;;;;;;;;;;;;;;;16.32;16.79;99204.63;4915835;29;19933;-75
2022/03/22 15:30:31;;;;;;;;;;;;;;;16.34;16.19;99201.56;4927693;29;19934;-75
2022/03/22 15:32:59;;;;;;;;;;;;;;;16.29;16.45;99208.00;4913813;29;20025;-75
2022/03/22 15:35:27;;;;;;;;;;;;;;;16.35;16.85;99200.44;4926175;29;19927;-75
2022/03/22 15:37:57;;;;;;;;;;;;;;;16.30;16.54;99197.84;4922947;29;19933;-75
2022/03/22 15:40:28;;;;;;;;;;;;;;;16.12;17.46;99200.53;4922359;29;19934;-75
2022/03/22 15:42:57;;;;;;;;;;;;;;;16.19;16.70;99200.91;4926199;29;19938;-75
2022/03/22 15:45:25;;;;;;;;;;;;;;;16.13;16.46;99195.84;4919560;29;20346;-75
2022/03/22 15:47:56;;;;;;;;;;;;;;;16.14;17.56;99198.28;4930534;29;20534;-75
2022/03/22 15:50:27;;;;;;;;;;;;;;;16.12;17.03;99195.03;4914959;29;19931;-75
2022/03/22 15:52:56;;;;;;;;;;;;;;;16.25;16.95;99190.59;4909692;29;19938;-75
2022/03/22 15:55:26;;;;;;;;;;;;;;;16.26;17.72;99191.41;4923928;29;19970;-75
2022/03/22 15:57:55;;;;;;;;;;;;;;;16.23;18.06;99196.38;4930938;29;20022;-75
2022/03/22 16:00:24;;;;;;;;;;;;;;;16.20;16.93;99194.28;4930119;29;20014;-75
2022/03/22 16:02:52;;;;;;;;;;;;;;;16.22;16.50;99196.69;4899814;29;19930;-75
2022/03/22 16:05:21;;;;;;;;;;;;;;;16.07;16.88;99184.22;4916362;29;19954;-75
2022/03/22 16:07:51;;;;;;;;;;;;;;;16.12;17.77;99195.03;4915233;29;19939;-75
2022/03/22 16:10:21;;;;;;;;;;;;;;;16.13;17.22;99188.44;4910692;29;19927;-75
2022/03/22 16:12:51;;;;;;;;;;;;;;;16.15;17.74;99191.69;4911496;29;19962;-77
2022/03/22 16:15:20;;;;;;;;;;;;;;;16.19;18.76;99195.41;4922829;29;19926;-75
2022/03/22 16:17:49;;;;;;;;;;;;;;;16.09;18.65;99187.47;4931779;29;20139;-75
2022/03/22 16:20:20;;;;;;;;;;;;;;;16.19;18.68;99195.41;4905562;29;19974;-76
2022/03/22 16:22:48;;;;;;;;;;;;;;;16.16;18.23;99198.78;4923055;29;19927;-72
2022/03/22 16:25:18;;;;;;;;;;;;;;;16.03;17.63;99193.38;4904361;29;19982;-74
2022/03/22 16:27:47;;;;;;;;;;;;;;;15.97;18.47;99190.78;4930622;29;19981;-74
2022/03/22 16:30:17;;;;;;;;;;;;;;;15.94;18.68;99187.88;4921559;29;19952;-74